createdAt,value
2019-01-29T00:00:16.929Z,1.07
2019-01-29T00:02:45.486Z,1.65
2019-01-29T00:05:14.156Z,0.90
2019-01-29T00:07:42.696Z,0.70
2019-01-29T00:10:11.386Z,0.80
2019-01-29T00:12:39.914Z,0.60
2019-01-29T00:15:11.836Z,1.02
2019-01-29T00:17:40.445Z,0.80
2019-01-29T00:20:12.472Z,0.82
2019-01-29T00:22:41.024Z,0.78
2019-01-29T00:25:10.403Z,1.00
2019-01-29T00:27:38.958Z,0.75
2019-01-29T00:30:11.203Z,0.90
2019-01-29T00:32:39.839Z,0.90
2019-01-29T00:35:08.627Z,0.70
2019-01-29T00:37:37.142Z,1.67
2019-01-29T00:40:09.123Z,0.70
2019-01-29T00:42:37.651Z,0.90
2019-01-29T00:45:09.226Z,0.98
2019-01-29T00:47:37.781Z,1.90
2019-01-29T00:50:08.751Z,0.80
2019-01-29T00:52:42.016Z,0.88
2019-01-29T00:55:13.407Z,1.20
2019-01-29T00:57:42.315Z,1.07
2019-01-29T01:00:24.790Z,1.00
2019-01-29T01:02:53.415Z,0.70
2019-01-29T01:05:22.088Z,0.72
2019-01-29T01:07:50.690Z,0.80
2019-01-29T01:10:21.086Z,1.00
2019-01-29T01:12:49.875Z,1.00
2019-01-29T01:15:18.546Z,0.72
2019-01-29T01:17:47.166Z,0.90
2019-01-29T01:20:18.117Z,2.30
2019-01-29T01:22:51.244Z,0.90
2019-01-29T01:25:17.227Z,1.30
2019-01-29T01:27:46.106Z,1.07
2019-01-29T01:30:16.702Z,1.25
2019-01-29T01:32:45.325Z,1.52
2019-01-29T01:35:14.196Z,1.40
2019-01-29T01:37:42.875Z,2.65
2019-01-29T01:40:14.739Z,1.70
2019-01-29T01:42:43.272Z,2.00
2019-01-29T01:45:12.330Z,2.45
2019-01-29T01:47:40.879Z,2.30
2019-01-29T01:50:11.763Z,1.47
2019-01-29T01:52:40.361Z,2.10
2019-01-29T01:55:11.568Z,3.20
2019-01-29T01:57:40.087Z,4.25
2019-01-29T02:00:11.703Z,2.65
2019-01-29T02:02:40.253Z,2.45
2019-01-29T02:05:09.127Z,1.80
2019-01-29T02:07:37.654Z,3.08
2019-01-29T02:10:09.296Z,2.22
2019-01-29T02:12:37.970Z,3.62
2019-01-29T02:15:08.737Z,2.50
2019-01-29T02:17:37.283Z,2.50
2019-01-29T02:20:09.109Z,2.12
2019-01-29T02:22:37.686Z,3.83
2019-01-29T02:25:07.075Z,2.30
2019-01-29T02:27:35.676Z,3.05
2019-01-29T02:30:07.622Z,2.75
2019-01-29T02:32:36.177Z,3.08
2019-01-29T02:35:06.044Z,3.30
2019-01-29T02:37:34.724Z,2.52
2019-01-29T02:40:05.027Z,3.05
2019-01-29T02:42:33.538Z,6.00
2019-01-29T02:45:02.072Z,2.83
2019-01-29T02:47:30.628Z,6.90
2019-01-29T02:49:59.158Z,10.40
2019-01-29T02:52:27.700Z,3.02
2019-01-29T02:54:56.313Z,4.47
2019-01-29T02:57:24.787Z,3.02
2019-01-29T02:59:53.332Z,3.02
2019-01-29T03:02:21.892Z,2.42
2019-01-29T03:04:53.172Z,4.40
2019-01-29T03:07:20.604Z,4.33
2019-01-29T03:09:49.158Z,2.77
2019-01-29T03:12:17.758Z,2.60
2019-01-29T03:14:46.297Z,9.63
2019-01-29T03:17:14.925Z,2.40
2019-01-29T03:19:43.531Z,3.65
2019-01-29T03:22:12.131Z,2.52
2019-01-29T03:24:40.768Z,3.15
2019-01-29T03:27:09.307Z,10.28
2019-01-29T03:29:37.835Z,2.67
2019-01-29T03:32:06.471Z,3.15
2019-01-29T03:34:35.005Z,4.78
2019-01-29T03:37:03.599Z,3.55
2019-01-29T03:39:32.223Z,2.60
2019-01-29T03:42:00.858Z,2.58
2019-01-29T03:44:29.391Z,2.37
2019-01-29T03:46:57.922Z,4.15
2019-01-29T03:49:26.476Z,4.72
2019-01-29T03:51:55.013Z,2.60
2019-01-29T03:54:23.703Z,5.45
2019-01-29T03:56:52.387Z,2.40
2019-01-29T03:59:20.940Z,4.60
2019-01-29T04:01:49.549Z,3.15
2019-01-29T04:04:18.179Z,3.35
2019-01-29T04:06:46.710Z,5.42
2019-01-29T04:09:15.316Z,3.17
2019-01-29T04:11:43.934Z,4.00
2019-01-29T04:14:12.474Z,3.50
2019-01-29T04:16:41.102Z,4.12
2019-01-29T04:19:09.763Z,7.90
2019-01-29T04:21:38.326Z,2.72
2019-01-29T04:24:06.854Z,3.75
2019-01-29T04:26:35.406Z,4.15
2019-01-29T04:29:04.075Z,3.77
2019-01-29T04:31:32.693Z,6.25
2019-01-29T04:34:01.233Z,4.22
2019-01-29T04:36:29.768Z,3.40
2019-01-29T04:38:58.318Z,3.52
2019-01-29T04:41:26.842Z,3.40
2019-01-29T04:43:55.467Z,6.28
2019-01-29T04:46:24.012Z,6.83
2019-01-29T04:48:52.624Z,3.98
2019-01-29T04:51:21.223Z,3.55
2019-01-29T04:53:57.141Z,3.40
2019-01-29T04:56:20.027Z,4.65
2019-01-29T04:58:48.559Z,4.25
2019-01-29T05:01:18.438Z,5.53
2019-01-29T05:03:47.057Z,4.87
2019-01-29T05:06:15.678Z,6.62
2019-01-29T05:08:44.210Z,4.17
2019-01-29T05:11:12.768Z,10.05
2019-01-29T05:13:41.300Z,3.98
2019-01-29T05:16:09.850Z,7.60
2019-01-29T05:18:38.383Z,3.52
2019-01-29T05:21:07.078Z,4.95
2019-01-29T05:23:35.613Z,4.30
2019-01-29T05:26:04.274Z,3.83
2019-01-29T05:28:32.823Z,11.15
2019-01-29T05:31:01.362Z,3.42
2019-01-29T05:33:29.982Z,3.67
2019-01-29T05:35:58.518Z,3.40
2019-01-29T05:38:27.126Z,3.40
2019-01-29T05:40:55.753Z,3.70
2019-01-29T05:43:24.289Z,5.67
2019-01-29T05:45:52.830Z,3.17
2019-01-29T05:48:21.433Z,3.80
2019-01-29T05:50:50.051Z,2.83
2019-01-29T05:53:18.659Z,5.08
2019-01-29T05:55:47.296Z,2.80
2019-01-29T05:58:15.884Z,4.00
2019-01-29T06:00:44.571Z,3.27
2019-01-29T06:03:13.095Z,4.72
2019-01-29T06:05:41.711Z,3.25
2019-01-29T06:08:10.327Z,5.67
2019-01-29T06:10:38.860Z,4.28
2019-01-29T06:13:07.486Z,5.87
2019-01-29T06:15:36.019Z,4.90
2019-01-29T06:18:04.811Z,2.62
2019-01-29T06:20:33.479Z,3.45
2019-01-29T06:23:02.030Z,2.55
2019-01-29T06:25:30.701Z,8.53
2019-01-29T06:27:59.324Z,2.98
2019-01-29T06:30:27.992Z,2.55
2019-01-29T06:32:56.621Z,4.08
2019-01-29T06:35:25.286Z,3.90
2019-01-29T06:37:53.906Z,3.60
2019-01-29T06:40:24.597Z,3.87
2019-01-29T06:42:53.263Z,6.83
2019-01-29T06:45:23.951Z,5.12
2019-01-29T06:47:52.920Z,4.83
2019-01-29T06:50:23.920Z,3.37
2019-01-29T06:52:52.526Z,7.67
2019-01-29T06:55:22.520Z,3.22
2019-01-29T06:57:55.625Z,2.80
2019-01-29T07:00:26.621Z,3.50
2019-01-29T07:02:55.592Z,3.42
2019-01-29T07:05:24.268Z,2.92
2019-01-29T07:07:52.821Z,4.10
2019-01-29T07:10:22.990Z,3.22
2019-01-29T07:12:51.682Z,5.65
2019-01-29T07:15:43.416Z,8.33
2019-01-29T07:18:32.144Z,4.55
2019-01-29T07:21:01.625Z,2.67
2019-01-29T07:23:30.330Z,9.80
2019-01-29T07:25:58.923Z,3.47
2019-01-29T07:28:27.474Z,5.75
2019-01-29T07:30:56.075Z,4.60
2019-01-29T07:33:24.611Z,7.45
2019-01-29T07:35:53.239Z,9.48
2019-01-29T07:38:21.764Z,7.15
2019-01-29T07:40:50.388Z,6.17
2019-01-29T07:43:18.997Z,4.17
2019-01-29T07:45:47.611Z,7.15
2019-01-29T07:48:16.638Z,9.08
2019-01-29T07:50:45.333Z,4.30
2019-01-29T07:53:13.895Z,5.85
2019-01-29T07:55:42.552Z,3.02
2019-01-29T07:58:11.153Z,4.20
2019-01-29T08:00:39.755Z,3.50
2019-01-29T08:03:08.446Z,3.17
2019-01-29T08:05:36.975Z,4.92
2019-01-29T08:08:05.672Z,5.53
2019-01-29T08:10:34.273Z,3.58
2019-01-29T08:13:02.894Z,5.53
2019-01-29T08:15:31.564Z,5.08
2019-01-29T08:18:00.201Z,6.30
2019-01-29T08:20:28.853Z,3.27
2019-01-29T08:22:57.327Z,3.55
2019-01-29T08:25:25.895Z,3.37
2019-01-29T08:27:54.418Z,2.55
2019-01-29T08:30:23.121Z,3.75
2019-01-29T08:32:51.652Z,9.20
2019-01-29T08:35:20.743Z,4.20
2019-01-29T08:37:49.279Z,5.80
2019-01-29T08:40:18.470Z,2.40
2019-01-29T08:42:47.086Z,3.60
2019-01-29T08:45:20.483Z,4.67
2019-01-29T08:47:49.290Z,3.40
2019-01-29T08:50:20.839Z,4.40
2019-01-29T08:52:49.392Z,2.98
2019-01-29T08:55:18.159Z,2.62
2019-01-29T08:57:46.851Z,3.30
2019-01-29T09:00:18.490Z,7.30
2019-01-29T09:02:47.923Z,4.90
2019-01-29T09:05:16.890Z,3.90
2019-01-29T09:07:45.570Z,2.65
2019-01-29T09:10:19.401Z,2.50
2019-01-29T09:12:48.090Z,3.00
2019-01-29T09:15:20.748Z,2.70
2019-01-29T09:17:49.510Z,4.25
2019-01-29T09:20:22.434Z,2.40
2019-01-29T09:22:51.035Z,2.12
2019-01-29T09:25:22.525Z,1.92
2019-01-29T09:27:49.929Z,2.87
2019-01-29T09:30:19.731Z,2.15
2019-01-29T09:32:48.331Z,4.25
2019-01-29T09:35:17.022Z,4.70
2019-01-29T09:37:45.700Z,5.22
2019-01-29T09:40:22.545Z,2.95
2019-01-29T09:42:51.148Z,2.02
2019-01-29T09:45:20.987Z,2.30
2019-01-29T09:47:49.678Z,2.35
2019-01-29T09:50:20.468Z,2.58
2019-01-29T09:52:49.086Z,2.20
2019-01-29T09:55:28.199Z,2.50
2019-01-29T09:57:50.518Z,1.85
2019-01-29T10:00:25.184Z,2.58
2019-01-29T10:02:53.880Z,1.60
2019-01-29T10:05:22.561Z,1.80
2019-01-29T10:07:51.096Z,4.00
2019-01-29T10:10:19.704Z,7.17
2019-01-29T10:12:48.371Z,1.62
2019-01-29T10:15:20.978Z,3.65
2019-01-29T10:17:51.168Z,1.87
2019-01-29T10:20:19.860Z,3.05
2019-01-29T10:22:48.523Z,7.12
2019-01-29T10:25:17.418Z,7.70
2019-01-29T10:27:46.019Z,1.65
2019-01-29T10:30:17.310Z,1.42
2019-01-29T10:32:45.986Z,1.60
2019-01-29T10:35:16.984Z,1.10
2019-01-29T10:37:45.647Z,2.55
2019-01-29T10:40:19.755Z,1.65
2019-01-29T10:42:48.452Z,2.02
2019-01-29T10:45:19.036Z,4.42
2019-01-29T10:47:47.862Z,1.17
2019-01-29T10:50:22.250Z,4.20
2019-01-29T10:52:51.530Z,1.32
2019-01-29T10:55:20.201Z,1.20
2019-01-29T10:57:49.193Z,1.20
2019-01-29T11:00:26.117Z,1.35
2019-01-29T11:02:54.807Z,1.70
2019-01-29T11:05:24.179Z,3.47
2019-01-29T11:07:52.791Z,3.08
2019-01-29T11:10:21.864Z,1.60
2019-01-29T11:12:50.460Z,2.27
2019-01-29T11:15:27.131Z,1.50
2019-01-29T11:17:56.107Z,2.15
2019-01-29T11:20:24.807Z,1.30
2019-01-29T11:22:53.482Z,7.45
2019-01-29T11:25:25.351Z,1.98
2019-01-29T11:27:53.959Z,4.05
2019-01-29T11:30:25.131Z,1.55
2019-01-29T11:32:54.432Z,1.10
2019-01-29T11:35:23.049Z,1.20
2019-01-29T11:37:51.750Z,1.35
2019-01-29T11:40:25.505Z,1.40
2019-01-29T11:42:54.300Z,0.82
2019-01-29T11:45:34.333Z,4.97
2019-01-29T11:48:03.028Z,2.25
2019-01-29T11:50:31.701Z,0.60
2019-01-29T11:53:00.260Z,1.95
2019-01-29T11:55:28.935Z,1.50
2019-01-29T11:57:57.655Z,0.85
2019-01-29T12:00:31.048Z,1.15
2019-01-29T12:02:59.647Z,1.67
2019-01-29T12:05:28.190Z,0.90
2019-01-29T12:07:57.180Z,2.75
2019-01-29T12:10:25.967Z,1.87
2019-01-29T12:12:54.629Z,1.67
2019-01-29T12:15:23.417Z,1.47
2019-01-29T12:17:52.082Z,3.87
2019-01-29T12:20:21.170Z,1.37
2019-01-29T12:22:49.871Z,1.07
2019-01-29T12:25:18.835Z,1.27
2019-01-29T12:27:47.498Z,0.80
2019-01-29T12:30:27.231Z,1.00
2019-01-29T12:32:56.702Z,1.90
2019-01-29T12:35:25.310Z,1.60
2019-01-29T12:37:53.926Z,1.25
2019-01-29T12:40:22.519Z,2.25
2019-01-29T12:42:51.148Z,1.20
2019-01-29T12:45:20.202Z,1.42
2019-01-29T12:47:49.161Z,0.90
2019-01-29T12:50:23.478Z,1.15
2019-01-29T12:52:53.834Z,1.37
2019-01-29T12:55:22.504Z,3.95
2019-01-29T12:57:51.112Z,1.10
2019-01-29T13:00:21.370Z,1.80
2019-01-29T13:02:49.969Z,1.75
2019-01-29T13:05:18.661Z,1.27
2019-01-29T13:07:47.200Z,2.60
2019-01-29T13:10:21.471Z,1.70
2019-01-29T13:12:50.446Z,1.50
2019-01-29T13:15:30.915Z,1.72
2019-01-29T13:18:00.792Z,3.83
2019-01-29T13:20:29.494Z,1.30
2019-01-29T13:22:58.099Z,1.50
2019-01-29T13:25:26.714Z,2.17
2019-01-29T13:27:55.406Z,1.55
2019-01-29T13:30:27.374Z,0.95
2019-01-29T13:32:56.270Z,1.00
2019-01-29T13:35:33.203Z,1.98
2019-01-29T13:38:01.908Z,1.72
2019-01-29T13:40:30.889Z,1.22
2019-01-29T13:42:59.591Z,0.90
2019-01-29T13:45:28.267Z,2.20
2019-01-29T13:47:57.191Z,1.27
2019-01-29T13:50:34.674Z,1.25
2019-01-29T13:53:03.379Z,1.22
2019-01-29T13:55:32.060Z,3.10
2019-01-29T13:58:00.747Z,1.10
2019-01-29T14:00:31.543Z,1.30
2019-01-29T14:03:00.319Z,2.50
2019-01-29T14:05:28.950Z,1.55
2019-01-29T14:07:57.565Z,1.07
2019-01-29T14:10:26.298Z,1.05
2019-01-29T14:12:54.979Z,1.00
2019-01-29T14:15:29.844Z,1.30
2019-01-29T14:17:58.461Z,1.77
2019-01-29T14:20:27.066Z,1.47
2019-01-29T14:22:55.632Z,2.37
2019-01-29T14:25:24.312Z,1.10
2019-01-29T14:27:52.935Z,1.10
2019-01-29T14:30:24.035Z,1.75
2019-01-29T14:32:52.708Z,1.15
2019-01-29T14:35:22.193Z,1.45
2019-01-29T14:38:12.211Z,1.57
2019-01-29T14:40:40.885Z,2.10
2019-01-29T14:43:15.247Z,5.20
2019-01-29T14:45:43.847Z,1.75
2019-01-29T14:48:12.539Z,2.80
2019-01-29T14:50:41.743Z,1.37
2019-01-29T14:53:10.339Z,1.75
2019-01-29T14:55:38.959Z,1.60
2019-01-29T14:58:07.569Z,1.95
2019-01-29T15:00:39.128Z,1.45
2019-01-29T15:03:07.665Z,1.75
2019-01-29T15:05:36.429Z,1.12
2019-01-29T15:08:05.195Z,1.05
2019-01-29T15:10:33.947Z,1.37
2019-01-29T15:13:02.622Z,3.35
2019-01-29T15:15:39.761Z,2.12
2019-01-29T15:18:28.140Z,1.12
2019-01-29T15:20:56.874Z,3.02
2019-01-29T15:23:25.485Z,1.27
2019-01-29T15:25:54.151Z,2.65
2019-01-29T15:28:22.842Z,4.62
2019-01-29T15:30:51.548Z,1.20
2019-01-29T15:33:20.231Z,1.00
2019-01-29T15:35:48.822Z,1.00
2019-01-29T15:38:17.455Z,0.80
2019-01-29T15:40:46.198Z,5.60
2019-01-29T15:43:14.812Z,1.57
2019-01-29T15:45:43.331Z,1.67
2019-01-29T15:48:12.270Z,1.32
2019-01-29T15:50:40.976Z,1.02
2019-01-29T15:53:09.643Z,1.22
2019-01-29T15:55:38.328Z,1.02
2019-01-29T15:58:07.816Z,1.22
2019-01-29T16:00:38.394Z,2.15
2019-01-29T16:03:07.003Z,1.12
2019-01-29T16:05:37.861Z,3.83
2019-01-29T16:08:09.201Z,1.07
2019-01-29T16:10:40.162Z,0.80
2019-01-29T16:13:09.141Z,2.67
2019-01-29T16:15:38.034Z,1.50
2019-01-29T16:18:08.402Z,1.57
2019-01-29T16:20:37.303Z,3.92
2019-01-29T16:23:06.698Z,1.17
2019-01-29T16:25:36.711Z,1.12
2019-01-29T16:28:05.280Z,1.57
2019-01-29T16:30:35.761Z,1.40
2019-01-29T16:33:05.139Z,1.20
2019-01-29T16:35:35.586Z,1.40
2019-01-29T16:38:05.773Z,1.42
2019-01-29T16:40:42.513Z,6.17
2019-01-29T16:43:11.425Z,2.65
2019-01-29T16:45:40.336Z,3.62
2019-01-29T16:48:10.462Z,2.25
2019-01-29T16:50:39.291Z,1.37
2019-01-29T16:53:09.172Z,1.82
2019-01-29T16:55:38.076Z,1.40
2019-01-29T16:58:07.863Z,1.75
2019-01-29T17:00:38.656Z,2.58
2019-01-29T17:03:07.691Z,1.50
2019-01-29T17:05:36.825Z,1.92
2019-01-29T17:08:07.262Z,6.25
2019-01-29T17:10:36.335Z,2.60
2019-01-29T17:13:06.206Z,3.67
2019-01-29T17:15:36.767Z,3.70
2019-01-29T17:18:11.456Z,15.75
2019-01-29T17:20:43.073Z,17.35
2019-01-29T17:23:12.373Z,25.15
2019-01-29T17:25:42.599Z,51.18
2019-01-29T17:28:11.695Z,17.98
2019-01-29T17:30:44.660Z,33.30
2019-01-29T17:33:16.115Z,15.55
2019-01-29T17:35:46.456Z,23.95
2019-01-29T17:38:15.148Z,48.33
2019-01-29T17:40:44.939Z,79.75
2019-01-29T17:43:13.723Z,24.23
2019-01-29T17:45:47.958Z,6.10
2019-01-29T17:48:17.379Z,3.83
2019-01-29T17:50:46.899Z,2.35
2019-01-29T17:53:15.576Z,4.62
2019-01-29T17:55:45.469Z,3.92
2019-01-29T17:58:14.941Z,5.17
2019-01-29T18:00:46.845Z,3.67
2019-01-29T18:03:15.690Z,4.72
2019-01-29T18:05:44.675Z,1.90
2019-01-29T18:08:13.267Z,3.08
2019-01-29T18:10:41.866Z,2.02
2019-01-29T18:13:10.356Z,2.27
2019-01-29T18:15:38.891Z,2.98
2019-01-29T18:18:07.695Z,6.33
2019-01-29T18:20:36.308Z,2.75
2019-01-29T18:23:06.012Z,2.67
2019-01-29T18:25:34.806Z,2.22
2019-01-29T18:28:04.358Z,2.42
2019-01-29T18:30:35.231Z,2.37
2019-01-29T18:33:05.992Z,3.37
2019-01-29T18:35:34.806Z,2.30
2019-01-29T18:38:03.382Z,4.65
2019-01-29T18:40:40.556Z,3.55
2019-01-29T18:43:09.147Z,2.75
2019-01-29T18:45:38.536Z,5.20
2019-01-29T18:48:07.410Z,3.67
2019-01-29T18:50:36.087Z,4.80
2019-01-29T18:53:06.325Z,4.92
2019-01-29T18:55:36.501Z,3.92
2019-01-29T18:58:11.608Z,2.75
2019-01-29T19:00:35.609Z,2.80
2019-01-29T19:03:04.811Z,8.05
2019-01-29T19:05:35.496Z,4.80
2019-01-29T19:08:04.198Z,4.70
2019-01-29T19:10:32.740Z,4.60
2019-01-29T19:13:01.367Z,4.70
2019-01-29T19:15:29.978Z,4.08
2019-01-29T19:17:58.583Z,4.85
2019-01-29T19:20:27.680Z,4.25
2019-01-29T19:22:57.539Z,2.87
2019-01-29T19:25:26.323Z,5.17
2019-01-29T19:27:54.859Z,5.75
2019-01-29T19:30:26.230Z,4.20
2019-01-29T19:32:54.832Z,3.58
2019-01-29T19:35:23.737Z,4.92
2019-01-29T19:37:52.605Z,3.92
2019-01-29T19:40:21.233Z,8.50
2019-01-29T19:42:49.826Z,9.00
2019-01-29T19:45:23.763Z,7.25
2019-01-29T19:47:52.468Z,6.58
2019-01-29T19:50:23.257Z,7.62
2019-01-29T19:52:52.152Z,5.35
2019-01-29T19:55:21.128Z,4.67
2019-01-29T19:57:49.826Z,3.20
2019-01-29T20:00:30.391Z,6.25
2019-01-29T20:02:59.028Z,4.83
2019-01-29T20:05:27.726Z,2.95
2019-01-29T20:07:56.299Z,2.80
2019-01-29T20:10:24.990Z,3.67
2019-01-29T20:12:53.672Z,3.85
2019-01-29T20:15:24.575Z,2.55
2019-01-29T20:17:55.027Z,4.53
2019-01-29T20:20:26.429Z,3.52
2019-01-29T20:22:55.102Z,3.47
2019-01-29T20:25:23.809Z,6.92
2019-01-29T20:27:53.157Z,3.50
2019-01-29T20:30:24.791Z,5.92
2019-01-29T20:32:54.410Z,5.83
2019-01-29T20:35:23.021Z,7.50
2019-01-29T20:37:51.644Z,4.22
2019-01-29T20:40:22.321Z,3.55
2019-01-29T20:42:50.947Z,4.37
2019-01-29T20:45:19.629Z,2.92
2019-01-29T20:47:48.588Z,2.65
2019-01-29T20:50:23.160Z,5.85
2019-01-29T20:52:51.779Z,5.00
2019-01-29T20:55:20.649Z,3.92
2019-01-29T20:57:49.339Z,2.98
2019-01-29T21:00:23.595Z,5.40
2019-01-29T21:02:52.271Z,2.45
2019-01-29T21:05:20.974Z,3.52
2019-01-29T21:07:49.566Z,4.00
2019-01-29T21:10:23.330Z,4.45
2019-01-29T21:12:52.012Z,3.40
2019-01-29T21:15:25.655Z,9.50
2019-01-29T21:17:56.362Z,5.72
2019-01-29T21:20:27.467Z,2.62
2019-01-29T21:22:56.139Z,3.90
2019-01-29T21:25:24.844Z,4.20
2019-01-29T21:27:53.435Z,4.53
2019-01-29T21:30:37.035Z,3.20
2019-01-29T21:33:05.706Z,3.95
2019-01-29T21:35:34.385Z,4.05
2019-01-29T21:38:02.939Z,3.90
2019-01-29T21:40:31.468Z,2.75
2019-01-29T21:43:00.167Z,2.65
2019-01-29T21:45:28.780Z,4.00
2019-01-29T21:47:59.370Z,2.52
2019-01-29T21:50:30.424Z,2.87
2019-01-29T21:52:59.068Z,5.45
2019-01-29T21:55:27.940Z,2.60
2019-01-29T21:57:56.726Z,3.65
2019-01-29T22:00:36.887Z,2.58
2019-01-29T22:03:06.373Z,2.58
2019-01-29T22:05:35.442Z,5.00
2019-01-29T22:08:04.563Z,2.70
2019-01-29T22:10:33.252Z,3.55
2019-01-29T22:13:01.932Z,2.50
2019-01-29T22:15:30.571Z,2.10
2019-01-29T22:17:59.173Z,2.33
2019-01-29T22:20:27.806Z,2.37
2019-01-29T22:22:56.395Z,4.83
2019-01-29T22:25:25.798Z,3.33
2019-01-29T22:27:54.393Z,9.05
2019-01-29T22:30:31.385Z,3.00
2019-01-29T22:32:59.991Z,4.40
2019-01-29T22:35:28.667Z,2.65
2019-01-29T22:37:57.367Z,3.25
2019-01-29T22:40:30.923Z,2.35
2019-01-29T22:43:00.922Z,2.95
2019-01-29T22:45:29.691Z,2.60
2019-01-29T22:47:58.260Z,2.92
2019-01-29T22:50:37.458Z,5.05
2019-01-29T22:53:06.175Z,4.45
2019-01-29T22:55:34.719Z,2.55
2019-01-29T22:58:03.387Z,3.70
2019-01-29T23:00:51.198Z,2.72
2019-01-29T23:03:28.524Z,2.25
2019-01-29T23:06:14.945Z,2.25
2019-01-29T23:08:43.579Z,2.35
2019-01-29T23:11:12.173Z,2.00
2019-01-29T23:13:40.786Z,4.25
2019-01-29T23:16:09.492Z,2.55
2019-01-29T23:18:38.166Z,1.80
2019-01-29T23:21:06.798Z,1.50
2019-01-29T23:23:35.466Z,2.22
2019-01-29T23:26:04.170Z,2.25
2019-01-29T23:28:32.709Z,2.47
2019-01-29T23:31:01.236Z,2.10
2019-01-29T23:33:29.792Z,1.50
2019-01-29T23:35:58.328Z,1.98
2019-01-29T23:38:26.946Z,2.12
2019-01-29T23:40:55.483Z,1.60
2019-01-29T23:43:24.030Z,3.00
2019-01-29T23:45:52.639Z,2.10
2019-01-29T23:48:21.186Z,1.50
2019-01-29T23:50:50.333Z,1.37
2019-01-29T23:53:18.891Z,1.85
2019-01-29T23:55:47.455Z,1.50
2019-01-29T23:58:15.988Z,3.55
